sensor_id;sensor_type;location;lat;lon;timestamp;P1;durP1;ratioP1;P2;durP2;ratioP2
13457;SDS011;6801;53.018;11.560;2022-07-04T00:01:43;0.63;;;0.30;;
13457;SDS011;6801;53.018;11.560;2022-07-04T00:04:10;1.60;;;0.40;;
13457;SDS011;6801;53.018;11.560;2022-07-04T00:06:36;1.70;;;0.55;;
13457;SDS011;6801;53.018;11.560;2022-07-04T00:09:03;0.88;;;0.40;;
13457;SDS011;6801;53.018;11.560;2022-07-04T00:11:30;2.30;;;0.40;;
13457;SDS011;6801;53.018;11.560;2022-07-04T00:13:57;1.33;;;0.40;;
13457;SDS011;6801;53.018;11.560;2022-07-04T00:16:24;0.60;;;0.30;;
13457;SDS011;6801;53.018;11.560;2022-07-04T00:18:53;0.98;;;0.40;;
13457;SDS011;6801;53.018;11.560;2022-07-04T00:21:20;2.65;;;0.50;;
13457;SDS011;6801;53.018;11.560;2022-07-04T00:23:47;0.57;;;0.30;;
13457;SDS011;6801;53.018;11.560;2022-07-04T00:26:14;1.10;;;0.45;;
13457;SDS011;6801;53.018;11.560;2022-07-04T00:28:41;1.13;;;0.50;;
13457;SDS011;6801;53.018;11.560;2022-07-04T00:31:08;0.95;;;0.30;;
13457;SDS011;6801;53.018;11.560;2022-07-04T00:33:35;3.85;;;0.70;;
13457;SDS011;6801;53.018;11.560;2022-07-04T00:36:03;1.67;;;0.60;;
13457;SDS011;6801;53.018;11.560;2022-07-04T00:38:31;2.05;;;0.60;;
13457;SDS011;6801;53.018;11.560;2022-07-04T00:40:58;0.55;;;0.40;;
13457;SDS011;6801;53.018;11.560;2022-07-04T00:43:26;1.67;;;0.50;;
13457;SDS011;6801;53.018;11.560;2022-07-04T00:45:53;1.67;;;0.40;;
13457;SDS011;6801;53.018;11.560;2022-07-04T00:48:21;1.25;;;0.65;;
13457;SDS011;6801;53.018;11.560;2022-07-04T00:50:48;1.45;;;0.35;;
13457;SDS011;6801;53.018;11.560;2022-07-04T00:53:16;1.60;;;0.57;;
13457;SDS011;6801;53.018;11.560;2022-07-04T00:55:45;1.48;;;0.52;;
13457;SDS011;6801;53.018;11.560;2022-07-04T00:58:13;1.38;;;0.40;;
13457;SDS011;6801;53.018;11.560;2022-07-04T01:00:40;2.50;;;0.60;;
13457;SDS011;6801;53.018;11.560;2022-07-04T01:03:07;2.28;;;0.43;;
13457;SDS011;6801;53.018;11.560;2022-07-04T01:05:34;2.35;;;0.70;;
13457;SDS011;6801;53.018;11.560;2022-07-04T01:08:01;1.27;;;0.60;;
13457;SDS011;6801;53.018;11.560;2022-07-04T01:10:32;1.27;;;0.40;;
13457;SDS011;6801;53.018;11.560;2022-07-04T01:12:59;1.08;;;0.45;;
13457;SDS011;6801;53.018;11.560;2022-07-04T01:15:26;2.20;;;0.60;;
13457;SDS011;6801;53.018;11.560;2022-07-04T01:17:53;1.30;;;0.45;;
13457;SDS011;6801;53.018;11.560;2022-07-04T01:20:21;1.70;;;0.45;;
13457;SDS011;6801;53.018;11.560;2022-07-04T01:22:49;0.93;;;0.40;;
13457;SDS011;6801;53.018;11.560;2022-07-04T01:25:16;1.52;;;0.52;;
13457;SDS011;6801;53.018;11.560;2022-07-04T01:27:43;2.40;;;0.40;;
13457;SDS011;6801;53.018;11.560;2022-07-04T01:30:10;1.65;;;0.50;;
13457;SDS011;6801;53.018;11.560;2022-07-04T01:32:37;2.78;;;0.57;;
13457;SDS011;6801;53.018;11.560;2022-07-04T01:35:05;2.17;;;0.43;;
13457;SDS011;6801;53.018;11.560;2022-07-04T01:37:34;2.35;;;0.55;;
13457;SDS011;6801;53.018;11.560;2022-07-04T01:40:01;1.13;;;0.50;;
13457;SDS011;6801;53.018;11.560;2022-07-04T01:42:28;1.50;;;0.75;;
13457;SDS011;6801;53.018;11.560;2022-07-04T01:44:55;1.85;;;0.40;;
13457;SDS011;6801;53.018;11.560;2022-07-04T01:47:22;2.60;;;0.60;;
13457;SDS011;6801;53.018;11.560;2022-07-04T01:49:49;2.08;;;0.70;;
13457;SDS011;6801;53.018;11.560;2022-07-04T01:52:16;1.65;;;0.60;;
13457;SDS011;6801;53.018;11.560;2022-07-04T01:54:44;2.30;;;0.98;;
13457;SDS011;6801;53.018;11.560;2022-07-04T01:57:11;1.02;;;0.60;;
13457;SDS011;6801;53.018;11.560;2022-07-04T01:59:38;1.17;;;0.55;;
13457;SDS011;6801;53.018;11.560;2022-07-04T02:02:23;1.23;;;0.50;;
13457;SDS011;6801;53.018;11.560;2022-07-04T02:04:50;4.97;;;0.68;;
13457;SDS011;6801;53.018;11.560;2022-07-04T02:07:17;1.23;;;0.50;;
13457;SDS011;6801;53.018;11.560;2022-07-04T02:09:45;0.52;;;0.50;;
13457;SDS011;6801;53.018;11.560;2022-07-04T02:12:13;2.15;;;0.70;;
13457;SDS011;6801;53.018;11.560;2022-07-04T02:14:57;1.52;;;1.10;;
13457;SDS011;6801;53.018;11.560;2022-07-04T02:17:24;1.13;;;0.60;;
13457;SDS011;6801;53.018;11.560;2022-07-04T02:19:51;1.85;;;0.50;;
13457;SDS011;6801;53.018;11.560;2022-07-04T02:22:18;1.65;;;0.70;;
13457;SDS011;6801;53.018;11.560;2022-07-04T02:24:47;3.53;;;0.60;;
13457;SDS011;6801;53.018;11.560;2022-07-04T02:27:13;2.33;;;0.70;;
13457;SDS011;6801;53.018;11.560;2022-07-04T02:29:41;1.77;;;0.88;;
13457;SDS011;6801;53.018;11.560;2022-07-04T02:32:08;1.80;;;0.60;;
13457;SDS011;6801;53.018;11.560;2022-07-04T02:34:35;1.73;;;0.82;;
13457;SDS011;6801;53.018;11.560;2022-07-04T02:37:02;1.20;;;0.73;;
13457;SDS011;6801;53.018;11.560;2022-07-04T02:39:29;3.13;;;0.75;;
13457;SDS011;6801;53.018;11.560;2022-07-04T02:41:58;2.03;;;0.77;;
13457;SDS011;6801;53.018;11.560;2022-07-04T02:44:25;5.05;;;0.90;;
13457;SDS011;6801;53.018;11.560;2022-07-04T02:46:52;2.65;;;0.65;;
13457;SDS011;6801;53.018;11.560;2022-07-04T02:49:19;2.85;;;1.08;;
13457;SDS011;6801;53.018;11.560;2022-07-04T02:51:46;2.13;;;0.70;;
13457;SDS011;6801;53.018;11.560;2022-07-04T02:54:13;2.63;;;0.70;;
13457;SDS011;6801;53.018;11.560;2022-07-04T02:56:40;2.40;;;1.15;;
13457;SDS011;6801;53.018;11.560;2022-07-04T02:59:09;4.35;;;0.70;;
13457;SDS011;6801;53.018;11.560;2022-07-04T03:01:36;3.22;;;0.50;;
13457;SDS011;6801;53.018;11.560;2022-07-04T03:04:03;3.47;;;1.08;;
13457;SDS011;6801;53.018;11.560;2022-07-04T03:06:30;2.47;;;0.95;;
13457;SDS011;6801;53.018;11.560;2022-07-04T03:08:57;1.40;;;0.65;;
13457;SDS011;6801;53.018;11.560;2022-07-04T03:11:24;1.98;;;0.60;;
13457;SDS011;6801;53.018;11.560;2022-07-04T03:13:51;2.30;;;0.90;;
13457;SDS011;6801;53.018;11.560;2022-07-04T03:16:19;1.80;;;0.73;;
13457;SDS011;6801;53.018;11.560;2022-07-04T03:18:46;1.38;;;0.60;;
13457;SDS011;6801;53.018;11.560;2022-07-04T03:21:13;1.52;;;0.70;;
13457;SDS011;6801;53.018;11.560;2022-07-04T03:23:40;1.55;;;0.80;;
13457;SDS011;6801;53.018;11.560;2022-07-04T03:26:07;1.35;;;0.55;;
13457;SDS011;6801;53.018;11.560;2022-07-04T03:28:35;4.78;;;0.98;;
13457;SDS011;6801;53.018;11.560;2022-07-04T03:31:02;4.20;;;0.75;;
13457;SDS011;6801;53.018;11.560;2022-07-04T03:33:30;3.35;;;0.80;;
13457;SDS011;6801;53.018;11.560;2022-07-04T03:35:57;1.45;;;0.50;;
13457;SDS011;6801;53.018;11.560;2022-07-04T03:38:24;2.38;;;0.70;;
13457;SDS011;6801;53.018;11.560;2022-07-04T03:40:51;3.78;;;0.90;;
13457;SDS011;6801;53.018;11.560;2022-07-04T03:43:17;4.95;;;1.00;;
13457;SDS011;6801;53.018;11.560;2022-07-04T03:45:44;2.15;;;0.82;;
13457;SDS011;6801;53.018;11.560;2022-07-04T03:48:11;5.00;;;1.05;;
13457;SDS011;6801;53.018;11.560;2022-07-04T03:50:40;5.95;;;1.05;;
13457;SDS011;6801;53.018;11.560;2022-07-04T03:53:06;2.58;;;0.80;;
13457;SDS011;6801;53.018;11.560;2022-07-04T03:55:33;2.88;;;0.70;;
13457;SDS011;6801;53.018;11.560;2022-07-04T03:58:00;2.08;;;1.08;;
13457;SDS011;6801;53.018;11.560;2022-07-04T04:00:29;4.05;;;1.35;;
13457;SDS011;6801;53.018;11.560;2022-07-04T04:02:56;3.90;;;0.80;;
13457;SDS011;6801;53.018;11.560;2022-07-04T04:05:23;2.75;;;0.90;;
13457;SDS011;6801;53.018;11.560;2022-07-04T04:07:57;6.00;;;1.35;;
13457;SDS011;6801;53.018;11.560;2022-07-04T04:10:25;4.30;;;1.42;;
13457;SDS011;6801;53.018;11.560;2022-07-04T04:12:54;2.83;;;0.85;;
13457;SDS011;6801;53.018;11.560;2022-07-04T04:15:21;7.80;;;1.13;;
13457;SDS011;6801;53.018;11.560;2022-07-04T04:17:48;2.03;;;0.80;;
13457;SDS011;6801;53.018;11.560;2022-07-04T04:20:15;5.18;;;1.23;;
13457;SDS011;6801;53.018;11.560;2022-07-04T04:22:42;2.03;;;0.90;;
13457;SDS011;6801;53.018;11.560;2022-07-04T04:25:10;2.70;;;1.05;;
13457;SDS011;6801;53.018;11.560;2022-07-04T04:27:37;3.22;;;1.00;;
13457;SDS011;6801;53.018;11.560;2022-07-04T04:30:05;2.42;;;1.20;;
13457;SDS011;6801;53.018;11.560;2022-07-04T04:32:32;2.35;;;0.98;;
13457;SDS011;6801;53.018;11.560;2022-07-04T04:34:59;4.80;;;1.58;;
13457;SDS011;6801;53.018;11.560;2022-07-04T04:37:27;5.28;;;1.33;;
13457;SDS011;6801;53.018;11.560;2022-07-04T04:39:54;3.65;;;1.17;;
13457;SDS011;6801;53.018;11.560;2022-07-04T04:42:22;3.75;;;1.38;;
13457;SDS011;6801;53.018;11.560;2022-07-04T04:44:49;2.53;;;1.15;;
13457;SDS011;6801;53.018;11.560;2022-07-04T04:47:17;6.15;;;1.58;;
13457;SDS011;6801;53.018;11.560;2022-07-04T04:49:44;7.75;;;1.20;;
13457;SDS011;6801;53.018;11.560;2022-07-04T04:52:12;2.72;;;0.98;;
13457;SDS011;6801;53.018;11.560;2022-07-04T04:54:39;3.60;;;1.30;;
13457;SDS011;6801;53.018;11.560;2022-07-04T04:57:06;3.33;;;1.17;;
13457;SDS011;6801;53.018;11.560;2022-07-04T04:59:34;5.20;;;1.60;;
13457;SDS011;6801;53.018;11.560;2022-07-04T05:02:02;4.13;;;1.60;;
13457;SDS011;6801;53.018;11.560;2022-07-04T05:04:29;6.40;;;2.00;;
13457;SDS011;6801;53.018;11.560;2022-07-04T05:06:56;3.10;;;1.50;;
13457;SDS011;6801;53.018;11.560;2022-07-04T05:09:23;3.45;;;1.80;;
13457;SDS011;6801;53.018;11.560;2022-07-04T05:11:50;2.63;;;1.27;;
13457;SDS011;6801;53.018;11.560;2022-07-04T05:14:17;2.58;;;1.63;;
13457;SDS011;6801;53.018;11.560;2022-07-04T05:16:46;3.60;;;1.40;;
13457;SDS011;6801;53.018;11.560;2022-07-04T05:19:13;6.13;;;2.50;;
13457;SDS011;6801;53.018;11.560;2022-07-04T05:21:39;3.92;;;1.40;;
13457;SDS011;6801;53.018;11.560;2022-07-04T05:24:06;2.50;;;1.65;;
13457;SDS011;6801;53.018;11.560;2022-07-04T05:26:34;5.10;;;2.00;;
13457;SDS011;6801;53.018;11.560;2022-07-04T05:29:01;4.18;;;1.50;;
13457;SDS011;6801;53.018;11.560;2022-07-04T05:31:28;4.25;;;2.15;;
13457;SDS011;6801;53.018;11.560;2022-07-04T05:33:57;3.90;;;1.35;;
13457;SDS011;6801;53.018;11.560;2022-07-04T05:36:24;5.95;;;1.80;;
13457;SDS011;6801;53.018;11.560;2022-07-04T05:38:51;4.53;;;1.83;;
13457;SDS011;6801;53.018;11.560;2022-07-04T05:41:18;5.30;;;2.28;;
13457;SDS011;6801;53.018;11.560;2022-07-04T05:43:45;5.97;;;1.50;;
13457;SDS011;6801;53.018;11.560;2022-07-04T05:46:12;3.72;;;2.08;;
13457;SDS011;6801;53.018;11.560;2022-07-04T05:48:39;4.07;;;1.60;;
13457;SDS011;6801;53.018;11.560;2022-07-04T05:51:07;4.18;;;1.30;;
13457;SDS011;6801;53.018;11.560;2022-07-04T05:53:34;4.15;;;1.05;;
13457;SDS011;6801;53.018;11.560;2022-07-04T05:56:02;5.55;;;1.67;;
13457;SDS011;6801;53.018;11.560;2022-07-04T05:58:29;4.28;;;1.60;;
13457;SDS011;6801;53.018;11.560;2022-07-04T06:00:56;4.13;;;2.03;;
13457;SDS011;6801;53.018;11.560;2022-07-04T06:03:23;3.42;;;1.17;;
13457;SDS011;6801;53.018;11.560;2022-07-04T06:05:50;4.30;;;1.50;;
13457;SDS011;6801;53.018;11.560;2022-07-04T06:08:19;2.38;;;1.20;;
13457;SDS011;6801;53.018;11.560;2022-07-04T06:10:46;4.97;;;1.65;;
13457;SDS011;6801;53.018;11.560;2022-07-04T06:13:13;4.50;;;1.30;;
13457;SDS011;6801;53.018;11.560;2022-07-04T06:15:41;4.65;;;1.58;;
13457;SDS011;6801;53.018;11.560;2022-07-04T06:18:08;7.00;;;1.58;;
13457;SDS011;6801;53.018;11.560;2022-07-04T06:20:34;4.13;;;1.45;;
13457;SDS011;6801;53.018;11.560;2022-07-04T06:23:01;4.90;;;1.20;;
13457;SDS011;6801;53.018;11.560;2022-07-04T06:25:30;3.85;;;1.40;;
13457;SDS011;6801;53.018;11.560;2022-07-04T06:27:57;5.57;;;1.30;;
13457;SDS011;6801;53.018;11.560;2022-07-04T06:30:24;2.33;;;1.10;;
13457;SDS011;6801;53.018;11.560;2022-07-04T06:32:51;3.88;;;1.17;;
13457;SDS011;6801;53.018;11.560;2022-07-04T06:35:20;4.28;;;0.90;;
13457;SDS011;6801;53.018;11.560;2022-07-04T06:38:06;2.53;;;0.98;;
13457;SDS011;6801;53.018;11.560;2022-07-04T06:40:35;4.40;;;0.70;;
13457;SDS011;6801;53.018;11.560;2022-07-04T06:43:03;1.80;;;0.60;;
13457;SDS011;6801;53.018;11.560;2022-07-04T06:45:31;3.20;;;1.10;;
13457;SDS011;6801;53.018;11.560;2022-07-04T06:47:59;3.70;;;0.82;;
13457;SDS011;6801;53.018;11.560;2022-07-04T06:50:26;3.72;;;0.80;;
13457;SDS011;6801;53.018;11.560;2022-07-04T06:52:53;4.32;;;1.30;;
13457;SDS011;6801;53.018;11.560;2022-07-04T06:55:20;2.25;;;0.68;;
13457;SDS011;6801;53.018;11.560;2022-07-04T06:57:48;2.80;;;0.75;;
13457;SDS011;6801;53.018;11.560;2022-07-04T07:00:15;4.68;;;0.70;;
13457;SDS011;6801;53.018;11.560;2022-07-04T07:02:42;2.38;;;0.50;;
13457;SDS011;6801;53.018;11.560;2022-07-04T07:05:09;1.48;;;0.50;;
13457;SDS011;6801;53.018;11.560;2022-07-04T07:07:36;1.52;;;0.85;;
13457;SDS011;6801;53.018;11.560;2022-07-04T07:10:03;4.00;;;0.90;;
13457;SDS011;6801;53.018;11.560;2022-07-04T07:12:32;3.28;;;0.70;;
13457;SDS011;6801;53.018;11.560;2022-07-04T07:15:01;2.65;;;0.95;;
13457;SDS011;6801;53.018;11.560;2022-07-04T07:17:28;2.85;;;0.63;;
13457;SDS011;6801;53.018;11.560;2022-07-04T07:19:55;4.28;;;0.70;;
13457;SDS011;6801;53.018;11.560;2022-07-04T07:22:23;1.83;;;0.80;;
13457;SDS011;6801;53.018;11.560;2022-07-04T07:24:50;2.05;;;0.68;;
13457;SDS011;6801;53.018;11.560;2022-07-04T07:27:17;3.00;;;0.80;;
13457;SDS011;6801;53.018;11.560;2022-07-04T07:29:44;1.98;;;0.50;;
13457;SDS011;6801;53.018;11.560;2022-07-04T07:32:12;3.25;;;0.70;;
13457;SDS011;6801;53.018;11.560;2022-07-04T07:34:39;1.23;;;0.52;;
13457;SDS011;6801;53.018;11.560;2022-07-04T07:37:06;2.38;;;0.60;;
13457;SDS011;6801;53.018;11.560;2022-07-04T07:39:33;2.45;;;0.68;;
13457;SDS011;6801;53.018;11.560;2022-07-04T07:42:00;1.75;;;0.60;;
13457;SDS011;6801;53.018;11.560;2022-07-04T07:44:27;1.58;;;0.60;;
13457;SDS011;6801;53.018;11.560;2022-07-04T07:46:54;3.13;;;0.77;;
13457;SDS011;6801;53.018;11.560;2022-07-04T07:49:23;4.00;;;0.65;;
13457;SDS011;6801;53.018;11.560;2022-07-04T07:51:49;2.55;;;0.73;;
13457;SDS011;6801;53.018;11.560;2022-07-04T07:54:16;2.20;;;0.50;;
13457;SDS011;6801;53.018;11.560;2022-07-04T07:56:43;1.48;;;0.70;;
13457;SDS011;6801;53.018;11.560;2022-07-04T07:59:10;2.92;;;0.60;;
13457;SDS011;6801;53.018;11.560;2022-07-04T08:01:38;0.82;;;0.60;;
13457;SDS011;6801;53.018;11.560;2022-07-04T08:04:05;1.33;;;0.50;;
13457;SDS011;6801;53.018;11.560;2022-07-04T08:06:51;1.00;;;0.43;;
13457;SDS011;6801;53.018;11.560;2022-07-04T08:09:18;0.88;;;0.47;;
13457;SDS011;6801;53.018;11.560;2022-07-04T08:11:45;1.85;;;0.70;;
13457;SDS011;6801;53.018;11.560;2022-07-04T08:14:12;2.85;;;0.93;;
13457;SDS011;6801;53.018;11.560;2022-07-04T08:16:39;2.42;;;0.68;;
13457;SDS011;6801;53.018;11.560;2022-07-04T08:19:06;3.70;;;0.40;;
13457;SDS011;6801;53.018;11.560;2022-07-04T08:21:33;1.80;;;0.60;;
13457;SDS011;6801;53.018;11.560;2022-07-04T08:24:02;1.38;;;0.55;;
13457;SDS011;6801;53.018;11.560;2022-07-04T08:26:29;1.65;;;0.38;;
13457;SDS011;6801;53.018;11.560;2022-07-04T08:28:56;2.20;;;0.68;;
13457;SDS011;6801;53.018;11.560;2022-07-04T08:31:24;2.55;;;0.60;;
13457;SDS011;6801;53.018;11.560;2022-07-04T08:33:51;2.20;;;0.50;;
13457;SDS011;6801;53.018;11.560;2022-07-04T08:36:19;2.95;;;0.45;;
13457;SDS011;6801;53.018;11.560;2022-07-04T08:38:46;2.92;;;0.50;;
13457;SDS011;6801;53.018;11.560;2022-07-04T08:41:16;2.45;;;0.50;;
13457;SDS011;6801;53.018;11.560;2022-07-04T08:43:44;1.05;;;0.50;;
13457;SDS011;6801;53.018;11.560;2022-07-04T08:46:13;0.80;;;0.30;;
13457;SDS011;6801;53.018;11.560;2022-07-04T08:48:43;1.55;;;0.70;;
13457;SDS011;6801;53.018;11.560;2022-07-04T08:51:18;2.38;;;0.40;;
13457;SDS011;6801;53.018;11.560;2022-07-04T08:53:50;2.63;;;0.30;;
13457;SDS011;6801;53.018;11.560;2022-07-04T08:56:23;1.77;;;0.73;;
13457;SDS011;6801;53.018;11.560;2022-07-04T08:59:08;1.58;;;0.28;;
13457;SDS011;6801;53.018;11.560;2022-07-04T09:01:36;1.88;;;0.45;;
13457;SDS011;6801;53.018;11.560;2022-07-04T09:04:06;0.55;;;0.20;;
13457;SDS011;6801;53.018;11.560;2022-07-04T09:06:34;1.05;;;0.30;;
13457;SDS011;6801;53.018;11.560;2022-07-04T09:09:01;1.33;;;0.30;;
13457;SDS011;6801;53.018;11.560;2022-07-04T09:11:30;0.95;;;0.38;;
13457;SDS011;6801;53.018;11.560;2022-07-04T09:13:57;4.10;;;0.30;;
13457;SDS011;6801;53.018;11.560;2022-07-04T09:16:24;1.15;;;0.38;;
13457;SDS011;6801;53.018;11.560;2022-07-04T09:18:51;0.65;;;0.30;;
13457;SDS011;6801;53.018;11.560;2022-07-04T09:21:20;1.50;;;0.28;;
13457;SDS011;6801;53.018;11.560;2022-07-04T09:23:50;0.98;;;0.43;;
13457;SDS011;6801;53.018;11.560;2022-07-04T09:26:18;1.80;;;0.50;;
13457;SDS011;6801;53.018;11.560;2022-07-04T09:28:52;3.45;;;0.30;;
13457;SDS011;6801;53.018;11.560;2022-07-04T09:31:22;1.23;;;0.38;;
13457;SDS011;6801;53.018;11.560;2022-07-04T09:33:51;1.95;;;0.30;;
13457;SDS011;6801;53.018;11.560;2022-07-04T09:36:20;2.28;;;0.30;;
13457;SDS011;6801;53.018;11.560;2022-07-04T09:39:08;1.15;;;0.30;;
13457;SDS011;6801;53.018;11.560;2022-07-04T09:41:49;1.60;;;0.30;;
13457;SDS011;6801;53.018;11.560;2022-07-04T09:44:19;1.10;;;0.20;;
13457;SDS011;6801;53.018;11.560;2022-07-04T09:46:46;1.90;;;0.30;;
13457;SDS011;6801;53.018;11.560;2022-07-04T09:49:14;1.58;;;0.20;;
13457;SDS011;6801;53.018;11.560;2022-07-04T09:51:42;1.08;;;0.22;;
13457;SDS011;6801;53.018;11.560;2022-07-04T09:54:17;3.60;;;0.30;;
13457;SDS011;6801;53.018;11.560;2022-07-04T09:56:50;1.60;;;0.22;;
13457;SDS011;6801;53.018;11.560;2022-07-04T09:59:19;2.00;;;0.40;;
13457;SDS011;6801;53.018;11.560;2022-07-04T10:01:47;0.55;;;0.20;;
13457;SDS011;6801;53.018;11.560;2022-07-04T10:04:14;1.05;;;0.20;;
13457;SDS011;6801;53.018;11.560;2022-07-04T10:06:42;2.67;;;0.30;;
13457;SDS011;6801;53.018;11.560;2022-07-04T10:09:11;0.93;;;0.20;;
13457;SDS011;6801;53.018;11.560;2022-07-04T10:11:39;1.13;;;0.20;;
13457;SDS011;6801;53.018;11.560;2022-07-04T10:14:08;2.30;;;0.43;;
13457;SDS011;6801;53.018;11.560;2022-07-04T10:16:38;1.50;;;0.30;;
13457;SDS011;6801;53.018;11.560;2022-07-04T10:19:05;2.47;;;0.25;;
13457;SDS011;6801;53.018;11.560;2022-07-04T10:21:33;1.08;;;0.40;;
13457;SDS011;6801;53.018;11.560;2022-07-04T10:24:01;1.77;;;0.32;;
13457;SDS011;6801;53.018;11.560;2022-07-04T10:26:29;0.70;;;0.20;;
13457;SDS011;6801;53.018;11.560;2022-07-04T10:28:57;1.02;;;0.40;;
13457;SDS011;6801;53.018;11.560;2022-07-04T10:31:24;2.28;;;0.30;;
13457;SDS011;6801;53.018;11.560;2022-07-04T10:33:55;2.83;;;0.40;;
13457;SDS011;6801;53.018;11.560;2022-07-04T10:36:24;1.10;;;0.40;;
13457;SDS011;6801;53.018;11.560;2022-07-04T10:38:55;1.98;;;0.30;;
13457;SDS011;6801;53.018;11.560;2022-07-04T10:41:24;3.65;;;0.80;;
13457;SDS011;6801;53.018;11.560;2022-07-04T10:43:56;2.38;;;0.70;;
13457;SDS011;6801;53.018;11.560;2022-07-04T10:46:36;4.68;;;0.40;;
13457;SDS011;6801;53.018;11.560;2022-07-04T10:49:19;0.73;;;0.32;;
13457;SDS011;6801;53.018;11.560;2022-07-04T10:51:48;1.15;;;0.20;;
13457;SDS011;6801;53.018;11.560;2022-07-04T10:54:16;2.88;;;0.30;;
13457;SDS011;6801;53.018;11.560;2022-07-04T10:56:45;0.73;;;0.38;;
13457;SDS011;6801;53.018;11.560;2022-07-04T10:59:15;0.43;;;0.20;;
13457;SDS011;6801;53.018;11.560;2022-07-04T11:01:45;4.07;;;0.85;;
13457;SDS011;6801;53.018;11.560;2022-07-04T11:04:16;0.90;;;0.20;;
13457;SDS011;6801;53.018;11.560;2022-07-04T11:07:14;2.90;;;0.50;;
13457;SDS011;6801;53.018;11.560;2022-07-04T11:09:43;1.85;;;0.30;;
13457;SDS011;6801;53.018;11.560;2022-07-04T11:12:11;1.05;;;0.40;;
13457;SDS011;6801;53.018;11.560;2022-07-04T11:14:40;1.48;;;0.40;;
13457;SDS011;6801;53.018;11.560;2022-07-04T11:17:09;3.10;;;0.30;;
13457;SDS011;6801;53.018;11.560;2022-07-04T11:19:37;0.30;;;0.20;;
13457;SDS011;6801;53.018;11.560;2022-07-04T11:22:06;3.05;;;0.45;;
13457;SDS011;6801;53.018;11.560;2022-07-04T11:24:36;1.67;;;0.20;;
13457;SDS011;6801;53.018;11.560;2022-07-04T11:27:03;1.67;;;0.40;;
13457;SDS011;6801;53.018;11.560;2022-07-04T11:29:34;0.95;;;0.30;;
13457;SDS011;6801;53.018;11.560;2022-07-04T11:32:01;0.57;;;0.30;;
13457;SDS011;6801;53.018;11.560;2022-07-04T11:34:32;1.20;;;0.30;;
13457;SDS011;6801;53.018;11.560;2022-07-04T11:36:59;2.65;;;0.40;;
13457;SDS011;6801;53.018;11.560;2022-07-04T11:39:30;0.98;;;0.20;;
13457;SDS011;6801;53.018;11.560;2022-07-04T11:41:57;0.88;;;0.30;;
13457;SDS011;6801;53.018;11.560;2022-07-04T11:44:42;2.28;;;0.30;;
13457;SDS011;6801;53.018;11.560;2022-07-04T11:47:31;1.33;;;0.20;;
13457;SDS011;6801;53.018;11.560;2022-07-04T11:50:01;1.23;;;0.30;;
13457;SDS011;6801;53.018;11.560;2022-07-04T11:52:29;2.20;;;0.20;;
13457;SDS011;6801;53.018;11.560;2022-07-04T11:55:07;1.70;;;0.40;;
13457;SDS011;6801;53.018;11.560;2022-07-04T11:57:35;1.88;;;0.25;;
13457;SDS011;6801;53.018;11.560;2022-07-04T12:00:05;1.27;;;0.22;;
13457;SDS011;6801;53.018;11.560;2022-07-04T12:02:35;1.75;;;0.30;;
13457;SDS011;6801;53.018;11.560;2022-07-04T12:05:03;0.85;;;0.17;;
13457;SDS011;6801;53.018;11.560;2022-07-04T12:07:32;1.38;;;0.20;;
13457;SDS011;6801;53.018;11.560;2022-07-04T12:10:08;1.75;;;0.30;;
13457;SDS011;6801;53.018;11.560;2022-07-04T12:15:20;1.77;;;0.30;;
13457;SDS011;6801;53.018;11.560;2022-07-04T12:17:52;0.57;;;0.20;;
13457;SDS011;6801;53.018;11.560;2022-07-04T12:20:20;0.57;;;0.20;;
13457;SDS011;6801;53.018;11.560;2022-07-04T12:22:52;2.25;;;0.35;;
13457;SDS011;6801;53.018;11.560;2022-07-04T12:25:26;1.65;;;0.20;;
13457;SDS011;6801;53.018;11.560;2022-07-04T12:27:55;1.38;;;0.20;;
13457;SDS011;6801;53.018;11.560;2022-07-04T12:30:23;2.45;;;0.20;;
13457;SDS011;6801;53.018;11.560;2022-07-04T12:32:50;1.27;;;0.22;;
13457;SDS011;6801;53.018;11.560;2022-07-04T12:35:31;1.08;;;0.40;;
13457;SDS011;6801;53.018;11.560;2022-07-04T12:38:05;1.27;;;0.35;;
13457;SDS011;6801;53.018;11.560;2022-07-04T12:40:48;1.63;;;0.20;;
13457;SDS011;6801;53.018;11.560;2022-07-04T12:43:19;0.93;;;0.30;;
13457;SDS011;6801;53.018;11.560;2022-07-04T12:45:47;1.33;;;0.30;;
13457;SDS011;6801;53.018;11.560;2022-07-04T12:48:16;2.17;;;0.25;;
13457;SDS011;6801;53.018;11.560;2022-07-04T12:50:44;0.65;;;0.17;;
13457;SDS011;6801;53.018;11.560;2022-07-04T12:53:11;2.75;;;0.35;;
13457;SDS011;6801;53.018;11.560;2022-07-04T12:55:41;0.82;;;0.20;;
13457;SDS011;6801;53.018;11.560;2022-07-04T12:58:08;1.40;;;0.28;;
13457;SDS011;6801;53.018;11.560;2022-07-04T13:00:36;2.08;;;0.20;;
13457;SDS011;6801;53.018;11.560;2022-07-04T13:03:03;1.52;;;0.20;;
13457;SDS011;6801;53.018;11.560;2022-07-04T13:05:32;2.35;;;0.20;;
13457;SDS011;6801;53.018;11.560;2022-07-04T13:08:00;1.75;;;0.20;;
13457;SDS011;6801;53.018;11.560;2022-07-04T13:10:27;1.98;;;0.50;;
13457;SDS011;6801;53.018;11.560;2022-07-04T13:12:55;1.80;;;0.20;;
13457;SDS011;6801;53.018;11.560;2022-07-04T13:15:23;0.47;;;0.20;;
13457;SDS011;6801;53.018;11.560;2022-07-04T13:17:50;2.20;;;0.22;;
13457;SDS011;6801;53.018;11.560;2022-07-04T13:20:17;0.68;;;0.30;;
13457;SDS011;6801;53.018;11.560;2022-07-04T13:22:44;1.10;;;0.30;;
13457;SDS011;6801;53.018;11.560;2022-07-04T13:25:11;0.85;;;0.20;;
13457;SDS011;6801;53.018;11.560;2022-07-04T13:27:38;1.05;;;0.50;;
13457;SDS011;6801;53.018;11.560;2022-07-04T13:30:07;0.38;;;0.20;;
13457;SDS011;6801;53.018;11.560;2022-07-04T13:32:34;1.48;;;0.20;;
13457;SDS011;6801;53.018;11.560;2022-07-04T13:35:02;2.05;;;0.20;;
13457;SDS011;6801;53.018;11.560;2022-07-04T13:37:29;1.40;;;0.20;;
13457;SDS011;6801;53.018;11.560;2022-07-04T13:39:56;0.65;;;0.30;;
13457;SDS011;6801;53.018;11.560;2022-07-04T13:42:23;0.88;;;0.20;;
13457;SDS011;6801;53.018;11.560;2022-07-04T13:45:09;2.45;;;0.28;;
13457;SDS011;6801;53.018;11.560;2022-07-04T13:47:38;1.75;;;0.20;;
13457;SDS011;6801;53.018;11.560;2022-07-04T13:50:05;0.93;;;0.20;;
13457;SDS011;6801;53.018;11.560;2022-07-04T13:52:33;0.55;;;0.25;;
13457;SDS011;6801;53.018;11.560;2022-07-04T13:54:59;0.65;;;0.20;;
13457;SDS011;6801;53.018;11.560;2022-07-04T13:57:26;1.98;;;0.30;;
13457;SDS011;6801;53.018;11.560;2022-07-04T13:59:53;0.65;;;0.20;;
13457;SDS011;6801;53.018;11.560;2022-07-04T14:02:22;4.57;;;0.60;;
13457;SDS011;6801;53.018;11.560;2022-07-04T14:04:49;0.13;;;0.13;;
13457;SDS011;6801;53.018;11.560;2022-07-04T14:07:16;0.95;;;0.30;;
13457;SDS011;6801;53.018;11.560;2022-07-04T14:09:43;0.98;;;0.32;;
13457;SDS011;6801;53.018;11.560;2022-07-04T14:12:11;1.00;;;0.10;;
13457;SDS011;6801;53.018;11.560;2022-07-04T14:14:38;2.08;;;0.30;;
13457;SDS011;6801;53.018;11.560;2022-07-04T14:17:05;1.10;;;0.20;;
13457;SDS011;6801;53.018;11.560;2022-07-04T14:19:34;0.63;;;0.20;;
13457;SDS011;6801;53.018;11.560;2022-07-04T14:22:01;2.95;;;0.28;;
13457;SDS011;6801;53.018;11.560;2022-07-04T14:24:28;1.05;;;0.28;;
13457;SDS011;6801;53.018;11.560;2022-07-04T14:26:56;0.70;;;0.20;;
13457;SDS011;6801;53.018;11.560;2022-07-04T14:29:23;0.47;;;0.20;;
13457;SDS011;6801;53.018;11.560;2022-07-04T14:31:50;1.02;;;0.20;;
13457;SDS011;6801;53.018;11.560;2022-07-04T14:34:17;2.38;;;0.50;;
13457;SDS011;6801;53.018;11.560;2022-07-04T14:36:45;0.82;;;0.30;;
13457;SDS011;6801;53.018;11.560;2022-07-04T14:39:13;2.20;;;0.30;;
13457;SDS011;6801;53.018;11.560;2022-07-04T14:41:39;1.25;;;0.35;;
13457;SDS011;6801;53.018;11.560;2022-07-04T14:44:06;1.00;;;0.20;;
13457;SDS011;6801;53.018;11.560;2022-07-04T14:46:33;1.27;;;0.10;;
13457;SDS011;6801;53.018;11.560;2022-07-04T14:49:00;0.75;;;0.28;;
13457;SDS011;6801;53.018;11.560;2022-07-04T14:51:27;1.00;;;0.30;;
13457;SDS011;6801;53.018;11.560;2022-07-04T14:53:55;0.50;;;0.30;;
13457;SDS011;6801;53.018;11.560;2022-07-04T14:56:22;2.40;;;0.30;;
13457;SDS011;6801;53.018;11.560;2022-07-04T14:58:49;0.68;;;0.20;;